Time;durP1;ratioP1;P1;durP2;ratioP2;P2;SDS_P1;SDS_P2;PMS_P1;PMS_P2;Temp;Humidity;BMP_temperature;BMP_pressure;BME280_temperature;BME280_humidity;BME280_pressure;Samples;Min_cycle;Max_cycle;Signal;HPM_P1;HPM_P2
2023/01/19 00:01:24;;;;;;;;;;;4.00;88.20;;;-151.14;100.00;62537.16;5032874;28;19921;-89
2023/01/19 00:03:52;;;;;;;;;;;4.00;88.10;;;-151.14;100.00;62537.16;5016057;28;19928;-88
2023/01/19 00:06:20;;;;;;;;;;;4.00;88.10;;;-151.14;100.00;62537.16;5036921;28;20234;-89
2023/01/19 00:08:50;;;;;;;;;;;4.00;88.10;;;18.10;100.00;62537.16;5086031;22;19920;-80
2023/01/19 00:11:19;;;;;;;;;;;4.00;88.20;;;-151.14;100.00;62537.16;5052233;28;19921;-81
2023/01/19 00:13:49;;;;;;;;;;;4.00;88.10;;;-151.14;100.00;62537.16;5051958;28;19921;-80
2023/01/19 00:16:17;;;;;;;;;;;4.00;88.20;;;-151.14;100.00;62537.16;5068278;28;19921;-80
2023/01/19 00:18:45;;;;;;;;;;;4.00;88.20;;;-151.14;100.00;62537.16;5035073;28;19921;-80
2023/01/19 00:21:14;;;;;;;;;;;4.00;88.00;;;-151.14;100.00;62537.16;5053144;28;19925;-81
2023/01/19 00:23:42;;;;;;;;;;;4.00;88.10;;;-151.14;100.00;62537.16;5051892;28;19927;-80
2023/01/19 00:26:12;;;;;;;;;;;4.00;88.20;;;-151.14;100.00;62537.16;5034735;28;19927;-80
2023/01/19 00:28:40;;;;;;;;;;;4.00;88.20;;;-151.14;100.00;62537.16;5051615;28;20230;-80
2023/01/19 00:31:08;;;;;;;;;;;4.00;88.20;;;-151.14;100.00;62537.16;5051836;28;19927;-80
2023/01/19 00:33:36;;;;;;;;;;;4.00;88.20;;;-151.14;100.00;62537.16;5034967;28;19943;-80
2023/01/19 00:36:04;;;;;;;;;;;4.00;88.20;;;-151.14;100.00;62537.16;5034773;28;20123;-80
2023/01/19 00:38:32;;;;;;;;;;;4.00;88.20;;;2.69;100.00;62537.16;5015739;28;19921;-80
2023/01/19 00:41:00;;;;;;;;;;;3.90;88.20;;;2.69;100.00;62537.16;5031858;28;20119;-81
2023/01/19 00:43:28;;;;;;;;;;;4.00;88.20;;;-151.14;100.00;62537.16;5032793;28;19921;-80
2023/01/19 00:45:56;;;;;;;;;;;4.00;88.20;;;-151.14;100.00;62537.16;5031416;28;19928;-81
2023/01/19 00:48:24;;;;;;;;;;;4.00;88.20;;;-151.14;100.00;62537.16;5015184;28;19921;-81
2023/01/19 00:50:52;;;;;;;;;;;4.00;88.20;;;-151.14;100.00;62537.16;5031667;28;20227;-80
2023/01/19 00:53:19;;;;;;;;;;;3.90;88.10;;;-151.14;100.00;62537.16;5048228;28;19922;-80
2023/01/19 00:55:47;;;;;;;;;;;4.00;88.20;;;-151.14;100.00;62537.16;5014514;28;19921;-80
2023/01/19 00:58:15;;;;;;;;;;;4.00;88.40;;;-151.14;100.00;62537.16;5045868;28;20216;-80
2023/01/19 01:00:45;;;;;;;;;;;4.00;88.30;;;-151.14;100.00;62537.16;5034702;28;19921;-80
2023/01/19 01:03:12;;;;;;;;;;;4.00;88.30;;;-151.14;100.00;62537.16;5051177;28;20226;-81
2023/01/19 01:05:41;;;;;;;;;;;4.00;88.20;;;2.70;100.00;62537.16;5034058;28;19921;-80
2023/01/19 01:08:09;;;;;;;;;;;4.00;88.30;;;-151.14;100.00;62537.16;5030934;28;20108;-81
2023/01/19 01:10:37;;;;;;;;;;;4.00;88.30;;;-151.14;100.00;62537.16;5014495;28;19921;-80
2023/01/19 01:13:05;;;;;;;;;;;4.00;88.40;;;-151.14;100.00;62537.16;5031282;28;20112;-81
2023/01/19 01:15:33;;;;;;;;;;;4.00;88.30;;;-151.14;100.00;62537.16;5030547;28;19931;-80
2023/01/19 01:18:02;;;;;;;;;;;4.00;88.40;;;-151.14;100.00;62537.16;5014632;28;20120;-81
2023/01/19 01:20:33;;;;;;;;;;;4.00;88.30;;;-151.14;100.00;62537.16;5031048;28;19921;-80
2023/01/19 01:23:01;;;;;;;;;;;4.00;88.30;;;-151.14;100.00;62537.16;5014832;28;19927;-81
2023/01/19 01:25:30;;;;;;;;;;;4.00;88.30;;;-151.14;100.00;62537.16;5030418;28;19925;-80
2023/01/19 01:27:58;;;;;;;;;;;4.00;88.40;;;-151.14;100.00;62537.16;5030984;28;19929;-81
2023/01/19 01:30:26;;;;;;;;;;;4.00;88.30;;;-151.14;100.00;62537.16;5032071;28;19927;-80
2023/01/19 01:32:54;;;;;;;;;;;4.00;89.20;;;-151.14;100.00;62537.16;5020924;28;19920;-81
2023/01/19 01:35:23;;;;;;;;;;;4.00;88.30;;;-151.14;100.00;62537.16;5050113;28;19927;-80
2023/01/19 01:37:51;;;;;;;;;;;4.00;89.20;;;-151.14;100.00;62537.16;5046295;28;19922;-80
2023/01/19 01:40:19;;;;;;;;;;;4.00;88.40;;;-151.14;100.00;62537.16;5031898;28;19921;-80
2023/01/19 01:42:47;;;;;;;;;;;4.00;88.50;;;-151.14;100.00;62537.16;5014366;28;19921;-81
2023/01/19 01:45:28;;;;;;;;;;;4.00;88.40;;;-151.14;100.00;62537.16;5030238;28;20216;-81
2023/01/19 01:47:57;;;;;;;;;;;3.90;88.40;;;-151.14;100.00;62537.16;5033810;28;20208;-81
2023/01/19 01:50:28;;;;;;;;;;;4.00;88.40;;;-151.14;100.00;62537.16;5033832;28;19920;-80
2023/01/19 01:52:58;;;;;;;;;;;3.90;88.30;;;-151.14;100.00;62537.16;5050539;28;19921;-81
2023/01/19 01:55:26;;;;;;;;;;;3.90;88.40;;;2.63;100.00;81492.38;5050065;28;19921;-80
2023/01/19 01:57:56;;;;;;;;;;;4.00;88.40;;;-151.14;100.00;62537.16;5030875;28;19922;-81
2023/01/19 02:00:24;;;;;;;;;;;4.00;88.50;;;-151.14;100.00;62537.16;5030363;28;20118;-81
2023/01/19 02:02:54;;;;;;;;;;;4.00;88.50;;;-151.14;100.00;62537.16;5032978;28;19929;-80
2023/01/19 02:05:24;;;;;;;;;;;3.90;88.50;;;2.64;100.00;82154.38;5049735;28;19927;-81
2023/01/19 02:13:27;;;;;;;;;;;4.00;88.30;;;-151.14;100.00;62537.16;5033835;28;19921;-80
2023/01/19 02:15:56;;;;;;;;;;;4.00;88.40;;;-151.14;100.00;62537.16;5049704;28;19920;-81
2023/01/19 02:18:25;;;;;;;;;;;4.00;88.50;;;-151.14;100.00;62537.16;5051260;28;19921;-80
2023/01/19 02:20:59;;;;;;;;;;;4.00;88.50;;;-151.14;100.00;62537.16;5050050;28;19927;-80
2023/01/19 02:23:41;;;;;;;;;;;4.00;88.50;;;2.64;100.00;81793.63;5051445;28;19927;-81
2023/01/19 02:26:10;;;;;;;;;;;4.00;88.50;;;-151.14;100.00;62537.16;5033183;28;19927;-80
2023/01/19 02:28:38;;;;;;;;;;;4.00;88.50;;;-151.14;100.00;62537.16;5049964;28;19921;-80
2023/01/19 02:31:06;;;;;;;;;;;4.00;88.50;;;-151.14;100.00;62537.16;5033395;28;20238;-81
2023/01/19 02:33:34;;;;;;;;;;;4.00;88.50;;;-151.14;100.00;62537.16;5051184;28;19921;-81
2023/01/19 02:36:02;;;;;;;;;;;4.00;88.50;;;-151.14;100.00;62537.16;5049241;28;19921;-81
2023/01/19 02:38:31;;;;;;;;;;;4.00;88.50;;;-151.14;100.00;62537.16;5047399;28;19921;-80
2023/01/19 02:41:00;;;;;;;;;;;4.00;88.50;;;-151.14;100.00;62537.16;5046376;28;19937;-80
2023/01/19 02:43:28;;;;;;;;;;;4.00;88.50;;;-151.14;100.00;62537.16;5031508;28;19928;-81
2023/01/19 02:45:56;;;;;;;;;;;4.00;88.40;;;-151.14;100.00;62537.16;5049070;28;19927;-80
2023/01/19 02:48:24;;;;;;;;;;;4.00;88.40;;;-151.14;100.00;62537.16;5049496;28;20226;-80
2023/01/19 02:50:52;;;;;;;;;;;4.00;88.40;;;-151.14;100.00;62537.16;5050908;28;20119;-81
2023/01/19 02:53:46;;;;;;;;;;;4.00;88.30;;;-151.14;100.00;62537.16;5033372;28;19921;-80
2023/01/19 02:56:29;;;;;;;;;;;4.00;88.30;;;-151.14;100.00;62537.16;5021596;28;19921;-80
2023/01/19 02:58:59;;;;;;;;;;;4.00;88.30;;;28.66;100.00;62537.16;5046249;28;19921;-81
2023/01/19 03:01:31;;;;;;;;;;;3.90;88.30;;;-151.14;100.00;62537.16;5029260;28;19929;-80
2023/01/19 03:04:01;;;;;;;;;;;4.00;88.40;;;-151.14;100.00;62537.16;5029921;28;19927;-80
2023/01/19 03:06:36;;;;;;;;;;;4.00;88.40;;;-151.14;100.00;62537.16;5012677;28;19921;-80
2023/01/19 03:09:09;;;;;;;;;;;4.00;88.40;;;-151.14;100.00;62537.16;5046032;28;19921;-80
2023/01/19 03:11:39;;;;;;;;;;;4.00;88.40;;;-151.14;100.00;62537.16;5029731;28;19921;-80
2023/01/19 03:14:09;;;;;;;;;;;4.00;88.40;;;-151.14;100.00;62537.16;5030753;28;19922;-80
2023/01/19 03:16:39;;;;;;;;;;;4.00;88.40;;;-151.14;100.00;62537.16;5045578;28;19944;-81
2023/01/19 03:19:09;;;;;;;;;;;4.00;88.30;;;-151.14;100.00;62537.16;5046197;28;19927;-80
2023/01/19 03:21:37;;;;;;;;;;;4.00;88.30;;;-151.14;100.00;62537.16;5029358;28;20212;-80
2023/01/19 03:24:08;;;;;;;;;;;4.00;88.40;;;-151.14;100.00;62537.16;5032204;28;19921;-80
2023/01/19 03:26:37;;;;;;;;;;;4.00;88.30;;;-151.14;100.00;62537.16;5032451;28;20124;-80
2023/01/19 03:29:05;;;;;;;;;;;4.00;88.40;;;2.65;100.00;62537.16;5049552;28;19921;-81
2023/01/19 03:31:33;;;;;;;;;;;4.00;88.50;;;-151.14;100.00;62537.16;5032837;28;19921;-80
2023/01/19 03:34:03;;;;;;;;;;;4.00;88.40;;;-151.14;100.00;62537.16;5032822;28;20120;-81
2023/01/19 03:36:34;;;;;;;;;;;4.00;88.40;;;-151.14;100.00;62537.16;5015674;28;20112;-81
2023/01/19 03:39:02;;;;;;;;;;;4.00;88.40;;;-151.14;100.00;62537.16;5032686;28;19921;-81
2023/01/19 03:41:31;;;;;;;;;;;4.00;88.40;;;-151.14;100.00;62537.16;5032766;28;19921;-80
2023/01/19 03:43:59;;;;;;;;;;;4.00;88.40;;;-151.14;100.00;62537.16;5016378;28;19927;-81
2023/01/19 03:46:27;;;;;;;;;;;4.00;88.30;;;-151.14;100.00;62537.16;5035160;28;19920;-80
2023/01/19 03:48:55;;;;;;;;;;;4.00;88.20;;;-151.14;100.00;62537.16;5035853;28;19927;-80
2023/01/19 03:51:23;;;;;;;;;;;4.00;88.20;;;-151.14;100.00;62537.16;5035827;28;19935;-80
2023/01/19 03:53:51;;;;;;;;;;;4.00;88.30;;;-151.14;100.00;62537.16;5035696;28;19921;-80
2023/01/19 03:56:19;;;;;;;;;;;4.00;88.40;;;-151.14;100.00;62537.16;5051662;28;19921;-81
2023/01/19 03:58:48;;;;;;;;;;;4.00;88.30;;;-151.14;100.00;62537.16;5035564;28;19928;-81
2023/01/19 04:01:16;;;;;;;;;;;4.00;88.20;;;-151.14;100.00;62537.16;5053382;28;20094;-81
2023/01/19 04:03:46;;;;;;;;;;;4.00;88.30;;;-151.14;100.00;62537.16;5035520;28;19921;-80
2023/01/19 04:06:13;;;;;;;;;;;4.00;88.30;;;2.66;100.00;62537.16;5051587;28;19921;-80
2023/01/19 04:08:41;;;;;;;;;;;4.00;88.20;;;-151.14;100.00;62537.16;5052714;28;20108;-80
2023/01/19 04:11:10;;;;;;;;;;;4.00;88.30;;;-151.14;100.00;62537.16;5048543;28;19921;-80
2023/01/19 04:13:38;;;;;;;;;;;4.00;88.30;;;-151.14;100.00;62537.16;5015709;28;19928;-80
2023/01/19 04:16:07;;;;;;;;;;;4.00;88.20;;;18.10;100.00;62537.16;5022149;28;20121;-80
2023/01/19 04:18:35;;;;;;;;;;;4.00;88.20;;;-151.14;100.00;62537.16;5015837;28;19921;-81
2023/01/19 04:21:04;;;;;;;;;;;4.00;88.20;;;-151.14;100.00;62537.16;5015758;28;20120;-80
2023/01/19 04:23:32;;;;;;;;;;;4.00;88.20;;;-151.14;100.00;62537.16;5015640;28;19928;-80
2023/01/19 04:26:01;;;;;;;;;;;4.00;88.20;;;4.84;100.00;62537.16;5031300;28;19927;-81
2023/01/19 04:28:29;;;;;;;;;;;4.00;88.20;;;-151.14;100.00;62537.16;5031756;28;19935;-81
2023/01/19 04:30:57;;;;;;;;;;;4.00;88.20;;;-151.14;100.00;62537.16;5015687;28;19921;-81
2023/01/19 04:33:27;;;;;;;;;;;4.00;88.10;;;-151.14;100.00;62537.16;5030649;28;20120;-81
2023/01/19 04:35:55;;;;;;;;;;;4.00;88.20;;;-151.14;100.00;62537.16;5032334;28;20217;-80
2023/01/19 04:38:23;;;;;;;;;;;4.00;88.30;;;-151.14;100.00;62537.16;5031698;28;19927;-80
2023/01/19 04:40:51;;;;;;;;;;;4.00;88.30;;;-151.14;100.00;62537.16;5031745;28;19928;-80
2023/01/19 04:43:19;;;;;;;;;;;4.00;88.20;;;-151.14;100.00;62537.16;5015079;28;19928;-81
2023/01/19 04:45:47;;;;;;;;;;;4.00;89.00;;;-151.14;100.00;62537.16;5031365;28;19927;-80
2023/01/19 04:48:17;;;;;;;;;;;4.00;88.20;;;-151.14;100.00;62537.16;5032447;28;20123;-81
2023/01/19 04:50:46;;;;;;;;;;;4.00;88.20;;;2.70;100.00;62537.16;5018064;28;20215;-80
2023/01/19 04:53:15;;;;;;;;;;;4.00;88.20;;;-151.14;100.00;62537.16;5034855;28;19927;-80
2023/01/19 04:55:43;;;;;;;;;;;4.00;88.20;;;-151.14;100.00;62537.16;5048645;28;19924;-81
2023/01/19 04:58:11;;;;;;;;;;;4.00;88.20;;;-151.14;100.00;62537.16;5031118;28;20098;-80
2023/01/19 05:00:39;;;;;;;;;;;4.00;88.10;;;-151.14;100.00;62537.16;5033298;28;19928;-81
2023/01/19 05:03:07;;;;;;;;;;;4.00;88.20;;;-151.14;100.00;62537.16;5034605;28;19920;-80
2023/01/19 05:05:35;;;;;;;;;;;4.00;88.20;;;-151.14;100.00;62537.16;5034237;28;19921;-81
2023/01/19 05:08:04;;;;;;;;;;;4.00;88.20;;;-151.14;100.00;62537.16;5014412;28;19928;-80
2023/01/19 05:10:32;;;;;;;;;;;4.00;88.20;;;-151.14;100.00;62537.16;5032451;28;19921;-80
2023/01/19 05:13:00;;;;;;;;;;;4.00;88.20;;;-151.14;100.00;62537.16;5049667;28;19920;-80
2023/01/19 05:15:28;;;;;;;;;;;4.00;88.30;;;-151.14;100.00;62537.16;5050513;28;19927;-80
2023/01/19 05:17:57;;;;;;;;;;;4.00;88.30;;;-151.14;100.00;62537.16;5034396;28;19927;-80
2023/01/19 05:20:26;;;;;;;;;;;4.00;88.20;;;-151.14;100.00;62537.16;5051074;28;19979;-80
2023/01/19 05:22:54;;;;;;;;;;;4.00;88.30;;;2.69;100.00;81613.56;5050876;28;19927;-81
2023/01/19 05:25:23;;;;;;;;;;;4.00;88.30;;;-151.14;100.00;62537.16;5050295;28;19935;-81
2023/01/19 05:27:51;;;;;;;;;;;4.00;88.20;;;-151.14;100.00;62537.16;5050676;28;19921;-80
2023/01/19 05:30:19;;;;;;;;;;;4.00;88.20;;;-151.14;100.00;62537.16;5034372;28;19920;-81
2023/01/19 05:32:47;;;;;;;;;;;4.00;88.20;;;-151.14;100.00;62537.16;5030591;28;20213;-80
2023/01/19 05:35:15;;;;;;;;;;;4.00;88.20;;;-151.14;100.00;62537.16;5014009;28;19927;-81
2023/01/19 05:37:44;;;;;;;;;;;4.00;88.20;;;-151.14;100.00;62537.16;5014207;28;19921;-80
2023/01/19 05:40:12;;;;;;;;;;;4.00;88.20;;;-151.14;100.00;62537.16;5014631;28;19927;-80
2023/01/19 05:42:41;;;;;;;;;;;4.00;88.20;;;-151.14;100.00;62537.16;5039041;28;19928;-81
2023/01/19 05:45:10;;;;;;;;;;;4.00;88.20;;;-151.14;100.00;62537.16;5013937;28;19921;-81
2023/01/19 05:47:38;;;;;;;;;;;4.00;88.20;;;-151.14;100.00;62537.16;5047079;28;20119;-80
2023/01/19 05:50:07;;;;;;;;;;;4.00;88.20;;;-151.14;100.00;62537.16;5014430;28;19921;-81
2023/01/19 05:52:35;;;;;;;;;;;4.00;88.30;;;-151.14;100.00;62537.16;5013789;28;19927;-80
2023/01/19 05:55:03;;;;;;;;;;;4.00;88.20;;;-151.14;100.00;62537.16;5030905;28;19927;-81
2023/01/19 05:57:31;;;;;;;;;;;4.00;88.20;;;2.68;100.00;62537.16;5035224;28;19935;-80
2023/01/19 06:00:00;;;;;;;;;;;4.00;88.30;;;-151.14;100.00;62537.16;5030751;28;19921;-81
2023/01/19 06:02:28;;;;;;;;;;;4.00;88.20;;;-151.14;100.00;62537.16;5030368;28;19921;-81
2023/01/19 06:04:56;;;;;;;;;;;4.00;88.20;;;-151.14;100.00;62537.16;5014060;28;19927;-81
2023/01/19 06:07:24;;;;;;;;;;;4.00;88.20;;;-151.14;100.00;62537.16;5013497;28;19931;-81
2023/01/19 06:09:52;;;;;;;;;;;4.00;88.20;;;-151.14;100.00;62537.16;5030329;28;19935;-80
2023/01/19 06:12:20;;;;;;;;;;;4.00;88.10;;;-151.14;100.00;62537.16;5030323;28;20117;-80
2023/01/19 06:14:48;;;;;;;;;;;4.00;88.10;;;-151.14;100.00;62537.16;5013477;28;19921;-80
2023/01/19 06:17:17;;;;;;;;;;;4.00;88.00;;;-151.14;100.00;62537.16;5013214;28;19921;-80
2023/01/19 06:19:45;;;;;;;;;;;4.00;88.00;;;-151.14;100.00;62537.16;5030363;28;19927;-80
2023/01/19 06:22:13;;;;;;;;;;;4.00;87.90;;;-151.14;100.00;62537.16;5013913;28;19922;-80
2023/01/19 06:24:41;;;;;;;;;;;4.00;87.90;;;-151.14;100.00;62537.16;5013924;28;19928;-80
2023/01/19 06:27:10;;;;;;;;;;;4.00;87.90;;;-151.14;100.00;62537.16;5013231;28;19927;-80
2023/01/19 06:29:38;;;;;;;;;;;4.00;87.90;;;-151.14;100.00;62537.16;5013871;28;19921;-80
2023/01/19 06:32:06;;;;;;;;;;;4.10;88.00;;;2.75;100.00;62537.16;5031195;28;19988;-80
2023/01/19 06:34:35;;;;;;;;;;;4.10;87.90;;;-151.14;100.00;62537.16;5013436;28;19927;-80
2023/01/19 06:37:04;;;;;;;;;;;4.10;87.90;;;-151.14;100.00;62537.16;5013135;28;19925;-80
2023/01/19 06:39:31;;;;;;;;;;;4.10;87.90;;;-151.14;100.00;62537.16;5046456;28;19921;-80
2023/01/19 06:41:59;;;;;;;;;;;4.10;87.80;;;-151.14;100.00;62537.16;5030184;28;19922;-80
2023/01/19 06:44:27;;;;;;;;;;;4.10;87.80;;;-151.14;100.00;62537.16;5013659;28;19921;-80
2023/01/19 06:46:55;;;;;;;;;;;4.20;87.80;;;2.82;100.00;62537.16;5029552;28;19921;-80
2023/01/19 06:49:23;;;;;;;;;;;4.20;87.80;;;-151.14;100.00;62537.16;5046313;28;19921;-80
2023/01/19 06:51:53;;;;;;;;;;;4.20;88.00;;;-151.14;100.00;62537.16;5029985;28;19921;-80
2023/01/19 06:54:21;;;;;;;;;;;4.20;88.30;;;-151.14;100.00;62537.16;5029833;28;19921;-80
2023/01/19 06:56:49;;;;;;;;;;;4.20;88.30;;;-151.14;100.00;62537.16;5030534;28;19921;-80
2023/01/19 06:59:17;;;;;;;;;;;4.20;88.40;;;-151.14;100.00;62537.16;5033355;28;19927;-80
2023/01/19 07:01:44;;;;;;;;;;;4.20;89.20;;;-151.14;100.00;62537.16;5017068;28;19921;-80
2023/01/19 07:04:14;;;;;;;;;;;4.20;88.20;;;-151.14;100.00;62537.16;5039388;28;19922;-80
2023/01/19 07:06:41;;;;;;;;;;;4.20;88.00;;;-151.14;100.00;62537.16;5032626;28;19935;-80
2023/01/19 07:09:12;;;;;;;;;;;4.20;88.00;;;-151.14;100.00;62537.16;5016619;28;19921;-80
2023/01/19 07:11:40;;;;;;;;;;;4.20;88.00;;;-151.14;100.00;62537.16;5033296;28;19929;-80
2023/01/19 07:14:08;;;;;;;;;;;4.20;87.90;;;-151.14;100.00;62537.16;5033050;28;19921;-80
2023/01/19 07:16:36;;;;;;;;;;;4.20;87.90;;;-151.14;100.00;62537.16;5016127;28;19921;-80
2023/01/19 07:19:03;;;;;;;;;;;4.20;87.90;;;-151.14;100.00;62537.16;5016163;28;19922;-80
2023/01/19 07:21:31;;;;;;;;;;;4.20;88.00;;;-151.14;100.00;62537.16;5033088;28;20094;-80
2023/01/19 07:23:59;;;;;;;;;;;4.20;88.20;;;-151.14;100.00;62537.16;5032587;28;19928;-80
2023/01/19 07:26:29;;;;;;;;;;;4.30;88.50;;;-151.14;100.00;62537.16;5016021;28;19921;-80
2023/01/19 07:28:57;;;;;;;;;;;4.30;88.50;;;-151.14;100.00;62537.16;5016099;28;19921;-80
2023/01/19 07:31:25;;;;;;;;;;;4.30;88.50;;;-151.14;100.00;62537.16;5016538;28;19928;-80
2023/01/19 07:33:53;;;;;;;;;;;4.30;88.30;;;-151.14;100.00;62537.16;5016096;28;19944;-80
2023/01/19 07:36:21;;;;;;;;;;;4.40;88.40;;;-151.14;100.00;62537.16;5032109;28;19928;-80
2023/01/19 07:38:49;;;;;;;;;;;4.40;88.20;;;-151.14;100.00;62537.16;5016229;28;19921;-80
2023/01/19 07:41:17;;;;;;;;;;;4.40;88.10;;;-151.14;100.00;62537.16;5032906;28;19927;-80
2023/01/19 07:43:47;;;;;;;;;;;4.40;88.00;;;-151.14;100.00;62537.16;5020216;28;19920;-80
2023/01/19 07:46:14;;;;;;;;;;;4.40;88.00;;;-151.14;100.00;62537.16;5052085;28;19927;-80
2023/01/19 07:48:43;;;;;;;;;;;4.40;87.80;;;-151.14;100.00;62537.16;5035606;28;20119;-79
2023/01/19 07:51:16;;;;;;;;;;;4.40;87.80;;;-151.14;100.00;62537.16;5036047;28;20216;-80
2023/01/19 07:53:44;;;;;;;;;;;4.30;87.70;;;-151.14;100.00;62537.16;5049369;28;20326;-80
2023/01/19 07:56:12;;;;;;;;;;;4.30;87.70;;;-151.14;100.00;62537.16;5015654;28;19921;-80
2023/01/19 07:58:40;;;;;;;;;;;4.30;87.70;;;-151.14;100.00;62537.16;5032127;28;19921;-80
2023/01/19 08:01:10;;;;;;;;;;;4.30;87.80;;;-151.14;100.00;62537.16;5016147;28;19927;-80
2023/01/19 08:03:38;;;;;;;;;;;4.30;87.80;;;-151.14;100.00;62537.16;5015808;28;19928;-79
2023/01/19 08:06:06;;;;;;;;;;;4.30;88.60;;;-151.14;100.00;62537.16;5015550;28;19922;-79
2023/01/19 08:08:34;;;;;;;;;;;4.30;87.90;;;-151.14;100.00;62537.16;5015462;28;20227;-80
2023/01/19 08:11:02;;;;;;;;;;;4.30;87.80;;;-151.14;100.00;62537.16;5016014;28;19921;-80
2023/01/19 08:13:30;;;;;;;;;;;4.30;87.90;;;-151.14;100.00;62537.16;5032093;28;19978;-80
2023/01/19 08:15:58;;;;;;;;;;;4.30;87.90;;;-151.14;100.00;62537.16;5031647;28;19921;-80
2023/01/19 08:18:28;;;;;;;;;;;4.30;87.90;;;-151.14;100.00;62537.16;5031922;28;20136;-80
2023/01/19 08:20:55;;;;;;;;;;;4.30;87.90;;;-151.14;100.00;62537.16;5015559;28;19921;-80
2023/01/19 08:23:23;;;;;;;;;;;4.30;87.90;;;-151.14;100.00;62537.16;5033105;28;19932;-80
2023/01/19 08:25:51;;;;;;;;;;;4.30;87.90;;;-151.14;100.00;62537.16;5048101;28;20208;-80
2023/01/19 08:28:19;;;;;;;;;;;4.30;87.80;;;-151.14;100.00;62537.16;5015332;28;19936;-80
2023/01/19 08:30:52;;;;;;;;;;;4.30;87.90;;;-151.14;100.00;62537.16;5035234;28;19935;-80
2023/01/19 08:33:21;;;;;;;;;;;4.30;88.00;;;-151.14;100.00;62537.16;5051549;28;19921;-80
2023/01/19 08:35:51;;;;;;;;;;;4.30;87.90;;;-151.14;100.00;62537.16;5034505;28;19947;-80
2023/01/19 08:38:19;;;;;;;;;;;4.30;87.90;;;-151.14;100.00;62537.16;5035068;28;19943;-80
2023/01/19 08:40:48;;;;;;;;;;;4.30;88.00;;;-151.14;100.00;62537.16;5051646;28;19943;-79
2023/01/19 08:43:16;;;;;;;;;;;4.30;88.00;;;-151.14;100.00;62537.16;5051724;28;20234;-80
2023/01/19 08:45:46;;;;;;;;;;;4.30;88.00;;;-151.14;100.00;62537.16;5050697;28;20121;-79
2023/01/19 08:48:14;;;;;;;;;;;4.30;88.70;;;-151.14;100.00;62537.16;5034771;28;19921;-80
2023/01/19 08:50:42;;;;;;;;;;;4.30;87.90;;;-151.14;100.00;62537.16;5031349;28;19928;-80
2023/01/19 08:53:12;;;;;;;;;;;4.30;87.90;;;-151.14;100.00;62537.16;5031507;28;19929;-80
2023/01/19 08:55:40;;;;;;;;;;;4.30;88.00;;;-151.14;100.00;62537.16;5031000;28;19928;-80
2023/01/19 08:58:08;;;;;;;;;;;4.30;87.90;;;-151.14;100.00;62537.16;5031437;28;19940;-80
2023/01/19 09:00:37;;;;;;;;;;;4.30;87.90;;;-151.14;100.00;62537.16;5015031;28;20208;-80
2023/01/19 09:03:06;;;;;;;;;;;4.30;87.90;;;-151.14;100.00;62537.16;5015152;28;19921;-80
2023/01/19 09:05:36;;;;;;;;;;;4.30;87.90;;;-151.14;100.00;62537.16;5014504;28;19932;-80
2023/01/19 09:08:05;;;;;;;;;;;4.30;87.90;;;-151.14;100.00;62537.16;5031205;28;19928;-80
2023/01/19 09:10:36;;;;;;;;;;;4.30;88.00;;;-151.14;100.00;62537.16;5031475;28;19922;-80
2023/01/19 09:13:04;;;;;;;;;;;4.30;87.90;;;-151.14;100.00;62537.16;5031410;28;20209;-80
2023/01/19 09:15:34;;;;;;;;;;;4.40;87.90;;;-151.14;100.00;62537.16;5030858;28;19927;-80
2023/01/19 09:18:03;;;;;;;;;;;4.40;87.90;;;-151.14;100.00;62537.16;5031675;28;19921;-80
2023/01/19 09:20:32;;;;;;;;;;;4.40;87.70;;;-151.14;100.00;62537.16;5030745;28;19922;-80
2023/01/19 09:23:00;;;;;;;;;;;4.40;87.80;;;-151.14;100.00;62537.16;5031718;28;19920;-80
2023/01/19 09:25:28;;;;;;;;;;;4.40;87.90;;;-151.14;100.00;62537.16;5030731;28;19927;-80
2023/01/19 09:27:58;;;;;;;;;;;4.40;87.90;;;-151.14;100.00;62537.16;5015149;28;19928;-80
2023/01/19 09:30:27;;;;;;;;;;;4.40;87.90;;;-151.14;100.00;62537.16;5014742;28;19928;-80
2023/01/19 09:32:55;;;;;;;;;;;4.40;87.90;;;-151.14;100.00;62537.16;5031538;28;19921;-80
2023/01/19 09:35:23;;;;;;;;;;;4.40;87.90;;;-151.14;100.00;62537.16;5016459;28;20247;-80
2023/01/19 09:37:51;;;;;;;;;;;4.40;87.80;;;-151.14;100.00;62537.16;5034374;28;19927;-80
2023/01/19 09:40:19;;;;;;;;;;;4.40;87.80;;;-151.14;100.00;62537.16;5033142;28;19921;-80
2023/01/19 09:42:48;;;;;;;;;;;4.40;87.70;;;-151.14;100.00;62537.16;5031053;28;19921;-80
2023/01/19 09:45:28;;;;;;;;;;;4.40;87.80;;;3.05;100.00;62537.16;5047065;28;19921;-80
2023/01/19 09:47:56;;;;;;;;;;;4.40;87.90;;;-151.14;100.00;62537.16;5030569;28;19921;-80
2023/01/19 09:50:27;;;;;;;;;;;4.40;87.90;;;-151.14;100.00;62537.16;5030783;28;19921;-80
2023/01/19 09:52:56;;;;;;;;;;;4.40;87.90;;;-151.14;100.00;62537.16;5030922;28;19927;-80
2023/01/19 09:55:26;;;;;;;;;;;4.40;87.90;;;-151.14;100.00;62537.16;5030634;28;19921;-80
2023/01/19 09:57:54;;;;;;;;;;;4.40;87.90;;;-151.14;100.00;62537.16;5030746;28;19927;-80
2023/01/19 10:00:23;;;;;;;;;;;4.40;88.00;;;3.05;100.00;62537.16;5031009;28;19921;-80
2023/01/19 10:02:53;;;;;;;;;;;4.40;88.00;;;-151.14;100.00;62537.16;5033289;28;19921;-80
2023/01/19 10:05:27;;;;;;;;;;;4.40;88.00;;;-151.14;100.00;62537.16;5049979;28;19927;-81
2023/01/19 10:08:04;;;;;;;;;;;4.40;88.00;;;-151.14;100.00;62537.16;5033835;28;20112;-80
2023/01/19 10:10:32;;;;;;;;;;;4.40;88.00;;;-151.14;100.00;62537.16;5033866;28;19987;-80
2023/01/19 10:13:09;;;;;;;;;;;4.40;88.10;;;-151.14;100.00;62537.16;5030198;28;19921;-80
2023/01/19 10:15:46;;;;;;;;;;;4.40;88.10;;;-151.14;100.00;62537.16;5013066;28;19929;-80
2023/01/19 10:18:17;;;;;;;;;;;4.40;88.20;;;-151.14;100.00;62537.16;5030689;28;20231;-80
2023/01/19 10:20:48;;;;;;;;;;;4.40;88.20;;;-151.14;100.00;62537.16;5013937;28;19928;-80
2023/01/19 10:23:38;;;;;;;;;;;4.40;88.20;;;-151.14;100.00;62537.16;5014004;28;19921;-80
2023/01/19 10:26:09;;;;;;;;;;;4.40;88.20;;;-151.14;100.00;62537.16;5029654;28;19921;-80
2023/01/19 10:28:37;;;;;;;;;;;4.40;88.00;;;-151.14;100.00;62537.16;5013636;28;19927;-80
2023/01/19 10:31:08;;;;;;;;;;;4.40;88.80;;;-151.14;100.00;62537.16;5014117;28;20212;-80
2023/01/19 10:33:36;;;;;;;;;;;4.40;88.00;;;-151.14;100.00;62537.16;5033780;28;20116;-80
2023/01/19 10:36:05;;;;;;;;;;;4.40;88.00;;;-151.14;100.00;62537.16;5049597;28;19921;-80
2023/01/19 10:38:34;;;;;;;;;;;4.40;88.00;;;-151.14;100.00;62537.16;5033351;28;19921;-80
2023/01/19 10:41:03;;;;;;;;;;;4.40;88.00;;;-151.14;100.00;62537.16;5033747;28;19921;-80
2023/01/19 10:43:41;;;;;;;;;;;4.40;88.00;;;-151.14;100.00;62537.16;5016869;28;19921;-80
2023/01/19 10:46:21;;;;;;;;;;;4.40;88.00;;;-151.14;100.00;62537.16;5016242;28;19928;-80
2023/01/19 10:48:50;;;;;;;;;;;4.40;88.00;;;-151.14;100.00;62537.16;5016872;28;19921;-80
2023/01/19 10:51:18;;;;;;;;;;;4.40;87.90;;;-151.14;100.00;62537.16;5033383;28;19921;-80
2023/01/19 10:53:57;;;;;;;;;;;4.40;88.00;;;-151.14;100.00;62537.16;5033611;28;19927;-79
2023/01/19 11:43:45;;;;;;;;;;;4.40;88.10;;;-151.14;100.00;62537.16;5103091;27;2122222;-90
2023/01/19 11:46:13;;;;;;;;;;;4.40;88.50;;;-151.14;100.00;62537.16;6187580;23;34582;-90
2023/01/19 11:48:43;;;;;;;;;;;4.40;88.50;;;3.12;100.00;62537.16;6164772;23;19938;-90
2023/01/19 11:51:13;;;;;;;;;;;4.40;88.50;;;18.12;100.00;62537.16;6164031;23;19938;-89
2023/01/19 11:53:41;;;;;;;;;;;4.50;88.70;;;-151.14;100.00;62537.16;6164099;23;20100;-90
2023/01/19 11:56:10;;;;;;;;;;;4.50;88.70;;;-151.14;100.00;62537.16;6188705;23;19922;-90
2023/01/19 11:58:39;;;;;;;;;;;4.50;88.60;;;-151.14;100.00;62537.16;6198601;23;19915;-89
2023/01/19 12:01:13;;;;;;;;;;;4.50;88.50;;;-151.14;100.00;62537.16;6163882;23;19922;-90
2023/01/19 12:03:41;;;;;;;;;;;4.50;88.60;;;-151.14;100.00;62537.16;6164156;23;19923;-90